createdAt,value
2022-11-30T00:01:14.608Z,84.60
2022-11-30T00:03:47.881Z,84.70
2022-11-30T00:06:23.501Z,84.60
2022-11-30T00:08:57.791Z,84.70
2022-11-30T00:11:30.406Z,84.60
2022-11-30T00:14:04.677Z,84.60
2022-11-30T00:16:37.216Z,84.70
2022-11-30T00:19:09.942Z,84.70
2022-11-30T00:21:42.460Z,84.60
2022-11-30T00:24:15.181Z,84.60
2022-11-30T00:26:47.830Z,84.60
2022-11-30T00:29:20.465Z,84.60
2022-11-30T00:31:52.951Z,84.60
2022-11-30T00:34:25.490Z,84.60
2022-11-30T00:36:58.099Z,84.60
2022-11-30T00:39:35.463Z,84.60
2022-11-30T00:42:08.591Z,84.50
2022-11-30T00:44:41.538Z,84.60
2022-11-30T00:47:14.071Z,84.50
2022-11-30T00:49:46.550Z,84.60
2022-11-30T00:52:19.110Z,84.60
2022-11-30T00:54:51.671Z,84.60
2022-11-30T00:57:24.210Z,84.60
2022-11-30T00:59:56.769Z,84.70
2022-11-30T01:02:29.424Z,84.70
2022-11-30T01:05:02.060Z,84.60
2022-11-30T01:07:34.720Z,84.70
2022-11-30T01:10:08.197Z,84.70
2022-11-30T01:12:40.586Z,84.70
2022-11-30T01:15:13.208Z,84.70
2022-11-30T01:17:45.767Z,84.50
2022-11-30T01:20:18.769Z,84.50
2022-11-30T01:22:51.331Z,84.50
2022-11-30T01:25:24.176Z,84.50
2022-11-30T01:27:56.810Z,84.50
2022-11-30T01:30:29.560Z,84.50
2022-11-30T01:33:03.993Z,84.50
2022-11-30T01:35:36.474Z,84.50
2022-11-30T01:38:08.980Z,84.40
2022-11-30T01:40:49.438Z,84.30
2022-11-30T01:43:22.031Z,84.40
2022-11-30T01:45:54.688Z,84.30
2022-11-30T01:48:27.285Z,84.30
2022-11-30T01:50:59.859Z,84.30
2022-11-30T01:53:32.553Z,84.20
2022-11-30T01:56:05.271Z,84.20
2022-11-30T01:58:37.836Z,84.00
2022-11-30T02:01:10.486Z,84.00
2022-11-30T02:03:55.297Z,84.00
2022-11-30T02:06:28.183Z,83.90
2022-11-30T02:09:01.497Z,83.90
2022-11-30T02:11:33.955Z,83.90
2022-11-30T02:14:24.533Z,83.90
2022-11-30T02:17:33.607Z,83.70
2022-11-30T02:20:09.283Z,83.80
2022-11-30T02:22:59.988Z,83.80
2022-11-30T02:25:49.714Z,83.80
2022-11-30T02:28:45.833Z,83.60
2022-11-30T02:31:27.134Z,83.70
2022-11-30T02:34:01.841Z,83.70
2022-11-30T02:36:34.767Z,83.70
2022-11-30T02:39:08.158Z,83.70
2022-11-30T02:41:41.189Z,83.60
2022-11-30T02:44:14.353Z,83.70
2022-11-30T02:46:57.439Z,83.50
2022-11-30T02:49:49.197Z,83.50
2022-11-30T02:52:26.333Z,83.40
2022-11-30T02:55:08.201Z,83.40
2022-11-30T02:57:40.750Z,83.30
2022-11-30T03:00:15.166Z,83.40
2022-11-30T03:02:47.751Z,83.40
2022-11-30T03:05:20.378Z,83.30
2022-11-30T03:07:52.929Z,83.30
2022-11-30T03:10:25.728Z,83.30
2022-11-30T03:12:59.594Z,83.20
2022-11-30T03:15:32.327Z,83.20
2022-11-30T03:18:05.605Z,83.10
2022-11-30T03:20:42.743Z,83.00
2022-11-30T03:23:15.313Z,83.00
2022-11-30T03:25:47.916Z,83.00
2022-11-30T03:28:20.435Z,82.80
2022-11-30T03:30:53.111Z,82.80
2022-11-30T03:33:26.688Z,82.80
2022-11-30T03:36:06.313Z,82.80
2022-11-30T03:38:39.294Z,82.80
2022-11-30T03:41:14.476Z,82.90
2022-11-30T03:43:47.931Z,82.80
2022-11-30T03:46:20.578Z,82.70
2022-11-30T03:48:53.486Z,82.70
2022-11-30T03:51:26.190Z,82.70
2022-11-30T03:53:58.894Z,82.60
2022-11-30T03:56:31.416Z,82.70
2022-11-30T03:59:04.136Z,82.60
2022-11-30T04:01:37.320Z,83.00
2022-11-30T04:04:11.599Z,82.60
2022-11-30T04:06:44.289Z,82.60
2022-11-30T04:09:16.915Z,82.60
2022-11-30T04:11:49.515Z,82.70
2022-11-30T04:14:22.171Z,82.60
2022-11-30T04:16:54.873Z,82.50
2022-11-30T04:19:27.449Z,82.50
2022-11-30T04:22:00.110Z,83.30
2022-11-30T04:24:32.726Z,82.50
2022-11-30T04:27:05.417Z,82.50
2022-11-30T04:29:38.130Z,82.50
2022-11-30T04:32:10.754Z,82.50
2022-11-30T04:34:43.570Z,82.50
2022-11-30T04:37:16.293Z,82.50
2022-11-30T04:39:48.996Z,82.40
2022-11-30T04:42:21.764Z,82.40
2022-11-30T04:44:54.485Z,82.50
2022-11-30T04:47:27.131Z,82.30
2022-11-30T04:49:59.827Z,82.40
2022-11-30T04:52:32.425Z,82.30
2022-11-30T04:55:05.340Z,82.30
2022-11-30T04:57:37.902Z,82.30
2022-11-30T05:00:11.227Z,82.20
2022-11-30T05:02:49.037Z,82.10
2022-11-30T05:05:25.164Z,82.20
2022-11-30T05:07:59.747Z,82.10
2022-11-30T05:10:34.113Z,82.10
2022-11-30T05:13:06.712Z,82.10
2022-11-30T05:15:39.272Z,82.10
2022-11-30T05:18:11.865Z,82.00
2022-11-30T05:20:51.174Z,82.00
2022-11-30T05:23:23.922Z,81.90
2022-11-30T05:25:56.501Z,81.90
2022-11-30T05:28:29.111Z,81.80
2022-11-30T05:31:05.590Z,81.80
2022-11-30T05:33:38.190Z,81.60
2022-11-30T05:36:11.126Z,81.60
2022-11-30T05:38:44.288Z,81.40
2022-11-30T05:41:16.746Z,81.30
2022-11-30T05:43:49.490Z,81.10
2022-11-30T05:46:22.172Z,81.00
2022-11-30T05:48:54.766Z,81.00
2022-11-30T05:51:27.378Z,81.00
2022-11-30T05:54:00.115Z,80.90
2022-11-30T05:56:32.782Z,80.80
2022-11-30T05:59:05.321Z,80.70
2022-11-30T06:01:37.902Z,80.50
2022-11-30T06:04:10.454Z,80.50
2022-11-30T06:06:43.056Z,80.40
2022-11-30T06:09:15.734Z,80.40
2022-11-30T06:11:48.346Z,80.30
2022-11-30T06:14:20.927Z,80.30
2022-11-30T06:16:53.515Z,80.20
2022-11-30T06:19:26.127Z,80.20
2022-11-30T06:21:58.664Z,80.10
2022-11-30T06:24:31.142Z,80.10
2022-11-30T06:27:03.663Z,79.90
2022-11-30T06:29:36.161Z,79.80
2022-11-30T06:32:08.846Z,79.70
2022-11-30T06:34:41.343Z,79.70
2022-11-30T06:37:13.918Z,79.70
2022-11-30T06:42:39.210Z,79.60
2022-11-30T06:45:12.004Z,79.50
2022-11-30T06:47:44.462Z,79.30
2022-11-30T06:50:17.154Z,79.20
2022-11-30T06:52:49.748Z,79.10
2022-11-30T06:55:22.829Z,79.00
2022-11-30T06:57:55.334Z,78.90
2022-11-30T07:00:27.878Z,78.80
2022-11-30T07:03:00.558Z,78.80
2022-11-30T07:05:42.405Z,78.70
2022-11-30T07:08:16.632Z,78.50
2022-11-30T07:10:49.271Z,78.60
2022-11-30T07:13:21.844Z,78.60
2022-11-30T07:15:54.550Z,78.60
2022-11-30T07:18:31.607Z,78.50
2022-11-30T07:21:06.845Z,78.60
2022-11-30T07:23:57.586Z,78.50
2022-11-30T07:26:30.248Z,78.60
2022-11-30T07:29:02.916Z,78.60
2022-11-30T07:31:35.869Z,78.60
2022-11-30T07:34:10.405Z,78.50
2022-11-30T07:36:42.921Z,78.40
2022-11-30T07:39:16.241Z,78.30
2022-11-30T07:41:48.631Z,78.20
2022-11-30T07:44:23.806Z,78.50
2022-11-30T07:46:56.383Z,78.20
2022-11-30T07:49:28.894Z,78.00
2022-11-30T07:52:04.408Z,77.70
2022-11-30T07:54:37.706Z,77.60
2022-11-30T07:57:10.178Z,77.20
2022-11-30T07:59:42.826Z,77.30
2022-11-30T08:02:15.576Z,77.20
2022-11-30T08:04:48.606Z,77.40
2022-11-30T08:07:21.542Z,77.40
2022-11-30T08:09:54.078Z,77.10
2022-11-30T08:12:26.711Z,76.90
2022-11-30T08:15:19.416Z,76.60
2022-11-30T08:17:55.402Z,76.30
2022-11-30T08:20:27.959Z,76.10
2022-11-30T08:23:00.586Z,75.70
2022-11-30T08:25:35.190Z,75.50
2022-11-30T08:28:07.777Z,75.10
2022-11-30T08:30:40.431Z,74.90
2022-11-30T08:33:13.406Z,75.00
2022-11-30T08:35:45.969Z,75.10
2022-11-30T08:38:18.653Z,75.10
2022-11-30T08:40:51.202Z,75.10
2022-11-30T08:43:23.822Z,74.70
2022-11-30T08:45:57.481Z,74.30
2022-11-30T08:48:30.465Z,74.10
2022-11-30T08:51:06.283Z,73.90
2022-11-30T08:53:39.423Z,73.80
2022-11-30T08:56:14.790Z,73.80
2022-11-30T08:58:48.225Z,73.90
2022-11-30T09:01:27.046Z,74.10
2022-11-30T09:04:02.396Z,74.30
2022-11-30T09:06:34.948Z,74.30
2022-11-30T09:09:09.935Z,74.20
2022-11-30T09:11:43.155Z,74.10
2022-11-30T09:14:15.723Z,73.90
2022-11-30T09:16:48.477Z,73.70
2022-11-30T09:19:21.595Z,73.50
2022-11-30T09:21:54.207Z,73.40
2022-11-30T09:24:26.760Z,73.70
2022-11-30T09:26:59.314Z,73.50
2022-11-30T09:29:31.869Z,73.60
2022-11-30T09:32:04.556Z,73.50
2022-11-30T09:34:37.135Z,73.50
2022-11-30T09:37:09.684Z,73.80
2022-11-30T09:39:42.300Z,73.80
2022-11-30T09:42:32.372Z,73.50
2022-11-30T09:45:14.271Z,73.50
2022-11-30T09:48:15.508Z,73.30
2022-11-30T09:50:49.803Z,73.20
2022-11-30T09:53:29.646Z,73.30
2022-11-30T09:56:03.491Z,73.10
2022-11-30T09:59:02.772Z,72.90
2022-11-30T10:01:37.579Z,73.00
2022-11-30T10:04:23.072Z,73.00
2022-11-30T10:07:21.842Z,73.10
2022-11-30T10:10:31.926Z,73.20
2022-11-30T10:13:18.722Z,73.00
2022-11-30T10:15:54.672Z,73.00
2022-11-30T10:19:00.939Z,73.00
2022-11-30T10:21:53.715Z,72.90
2022-11-30T10:24:55.345Z,73.00
2022-11-30T10:27:49.701Z,73.70
2022-11-30T10:30:24.854Z,72.50
2022-11-30T10:33:05.684Z,72.50
2022-11-30T10:35:49.785Z,72.50
2022-11-30T10:38:36.808Z,72.20
2022-11-30T10:41:21.336Z,72.20
2022-11-30T10:43:59.338Z,72.00
2022-11-30T10:46:37.009Z,72.00
2022-11-30T10:49:17.255Z,72.20
2022-11-30T10:51:57.732Z,72.20
2022-11-30T10:54:31.259Z,72.00
2022-11-30T10:57:06.861Z,72.00
2022-11-30T10:59:56.871Z,71.90
2022-11-30T11:02:39.421Z,71.70
2022-11-30T11:05:27.484Z,71.70
2022-11-30T11:08:07.244Z,71.60
2022-11-30T11:10:40.059Z,71.70
2022-11-30T11:13:42.961Z,71.60
2022-11-30T11:16:15.672Z,71.40
2022-11-30T11:18:56.668Z,71.40
2022-11-30T11:21:29.217Z,71.30
2022-11-30T11:24:10.185Z,72.20
2022-11-30T11:26:50.736Z,71.20
2022-11-30T11:29:35.257Z,71.00
2022-11-30T11:32:07.808Z,70.90
2022-11-30T11:34:40.491Z,70.90
2022-11-30T11:37:17.705Z,71.00
2022-11-30T11:40:08.288Z,70.90
2022-11-30T11:42:54.154Z,70.70
2022-11-30T11:45:30.964Z,70.60
2022-11-30T11:48:06.085Z,70.50
2022-11-30T11:53:51.624Z,70.30
2022-11-30T11:56:38.188Z,70.30
2022-11-30T11:59:11.190Z,70.30
2022-11-30T12:01:59.681Z,70.40
2022-11-30T12:04:48.018Z,70.40
2022-11-30T12:07:35.256Z,70.20
2022-11-30T12:10:57.376Z,70.10
2022-11-30T12:13:29.896Z,70.10
2022-11-30T12:16:10.709Z,69.80
2022-11-30T12:19:00.696Z,69.40
2022-11-30T12:21:46.783Z,69.00
2022-11-30T12:24:24.821Z,68.90
2022-11-30T12:27:12.408Z,68.90
2022-11-30T12:29:54.108Z,68.50
2022-11-30T12:32:59.212Z,68.30
2022-11-30T12:36:07.312Z,68.20
2022-11-30T12:38:49.566Z,68.30
2022-11-30T12:41:37.500Z,68.20
2022-11-30T12:44:53.957Z,68.30
2022-11-30T12:48:00.789Z,68.50
2022-11-30T12:50:54.633Z,68.40
2022-11-30T12:53:38.823Z,68.30
2022-11-30T12:56:23.440Z,68.20
2022-11-30T12:59:08.267Z,68.00
2022-11-30T13:01:58.618Z,68.10
2022-11-30T13:04:37.584Z,68.10
2022-11-30T13:07:35.237Z,67.60
2022-11-30T13:10:27.237Z,67.80
2022-11-30T13:13:02.221Z,67.70
2022-11-30T13:15:35.881Z,67.90
2022-11-30T13:18:15.707Z,68.00
2022-11-30T13:21:06.863Z,67.90
2022-11-30T13:23:48.900Z,67.70
2022-11-30T13:26:46.285Z,67.50
2022-11-30T13:29:25.044Z,68.50
2022-11-30T13:32:33.864Z,67.70
2022-11-30T13:35:29.326Z,67.60
2022-11-30T13:41:01.766Z,67.80
2022-11-30T13:43:45.729Z,67.80
2022-11-30T13:46:24.104Z,67.80
2022-11-30T13:49:22.743Z,67.80
2022-11-30T13:52:20.553Z,67.60
2022-11-30T13:54:51.017Z,67.70
2022-11-30T13:57:29.914Z,67.80
2022-11-30T14:00:23.834Z,67.90
2022-11-30T14:03:14.931Z,67.80
2022-11-30T14:05:47.908Z,68.10
2022-11-30T14:08:23.434Z,67.90
2022-11-30T14:11:48.247Z,67.80
2022-11-30T14:14:45.617Z,67.90
2022-11-30T14:17:25.270Z,68.00
2022-11-30T14:20:19.138Z,68.00
2022-11-30T14:22:52.607Z,67.90
2022-11-30T14:25:25.363Z,68.00
2022-11-30T14:27:58.255Z,68.00
2022-11-30T14:30:33.108Z,68.10
2022-11-30T14:33:19.199Z,68.10
2022-11-30T14:35:56.883Z,68.10
2022-11-30T14:38:33.885Z,68.00
2022-11-30T14:41:06.594Z,68.20
2022-11-30T14:43:39.350Z,68.20
2022-11-30T14:46:18.873Z,68.30
2022-11-30T14:49:24.177Z,68.20
2022-11-30T14:52:05.443Z,68.30
2022-11-30T14:55:04.230Z,68.40
2022-11-30T14:57:49.519Z,68.40
2022-11-30T15:00:22.729Z,68.40
2022-11-30T15:02:55.361Z,68.40
2022-11-30T15:05:30.931Z,68.50
2022-11-30T15:08:03.633Z,68.30
2022-11-30T15:10:39.492Z,68.30
2022-11-30T15:13:19.154Z,68.30
2022-11-30T15:15:53.932Z,68.40
2022-11-30T15:18:27.254Z,68.50
2022-11-30T15:21:01.588Z,68.60
2022-11-30T15:23:34.653Z,68.70
2022-11-30T15:26:15.991Z,68.70
2022-11-30T15:29:02.401Z,68.80
2022-11-30T15:31:38.821Z,68.80
2022-11-30T15:34:22.408Z,68.90
2022-11-30T15:36:55.911Z,69.00
2022-11-30T15:39:29.892Z,69.20
2022-11-30T15:42:05.414Z,69.10
2022-11-30T15:44:39.789Z,69.10
2022-11-30T15:47:36.161Z,69.20
2022-11-30T15:50:28.499Z,69.20
2022-11-30T15:53:03.652Z,69.30
2022-11-30T15:55:52.961Z,69.20
2022-11-30T15:58:45.042Z,69.30
2022-11-30T16:01:20.914Z,69.30
2022-11-30T16:03:56.294Z,69.30
2022-11-30T16:06:45.403Z,69.40
2022-11-30T16:09:22.931Z,69.40
2022-11-30T16:11:58.096Z,69.50
2022-11-30T16:14:30.701Z,69.40
2022-11-30T16:17:08.805Z,69.40
2022-11-30T16:19:41.779Z,69.40
2022-11-30T16:22:15.973Z,69.40
2022-11-30T16:24:48.563Z,69.40
2022-11-30T16:27:22.767Z,69.40
2022-11-30T16:29:55.496Z,69.40
2022-11-30T16:32:28.365Z,69.40
2022-11-30T16:35:02.068Z,69.40
2022-11-30T16:37:34.642Z,69.40
2022-11-30T16:40:07.819Z,69.50
2022-11-30T16:42:40.899Z,69.60
2022-11-30T16:45:17.392Z,69.60
2022-11-30T16:47:51.099Z,69.60
2022-11-30T16:50:23.720Z,69.70
2022-11-30T16:52:56.242Z,69.70
2022-11-30T16:55:35.094Z,69.80
2022-11-30T16:58:07.941Z,69.80
2022-11-30T17:00:41.429Z,69.80
2022-11-30T17:03:30.297Z,70.00
2022-11-30T17:06:02.925Z,70.10
2022-11-30T17:08:36.175Z,70.10
2022-11-30T17:11:26.476Z,70.20
2022-11-30T17:13:59.307Z,70.30
2022-11-30T17:16:32.178Z,70.30
2022-11-30T17:19:04.997Z,70.50
2022-11-30T17:21:39.191Z,70.50
2022-11-30T17:24:12.264Z,70.50
2022-11-30T17:26:44.872Z,70.60
2022-11-30T17:29:17.797Z,70.60
2022-11-30T17:31:50.377Z,70.60
2022-11-30T17:34:23.070Z,70.70
2022-11-30T17:36:57.053Z,70.70
2022-11-30T17:39:29.702Z,70.80
2022-11-30T17:42:02.472Z,70.80
2022-11-30T17:44:35.262Z,70.80
2022-11-30T17:47:07.932Z,70.90
2022-11-30T17:49:40.737Z,70.90
2022-11-30T17:52:13.290Z,70.90
2022-11-30T17:54:46.131Z,71.00
2022-11-30T17:57:18.977Z,71.00
2022-11-30T17:59:51.667Z,70.90
2022-11-30T18:02:24.556Z,70.90
2022-11-30T18:04:57.243Z,70.90
2022-11-30T18:07:29.899Z,70.90
2022-11-30T18:10:02.769Z,70.80
2022-11-30T18:12:36.486Z,70.80
2022-11-30T18:15:09.846Z,70.80
2022-11-30T18:17:42.332Z,70.80
2022-11-30T18:20:14.996Z,70.90
2022-11-30T18:22:47.512Z,70.90
2022-11-30T18:25:21.582Z,71.00
2022-11-30T18:27:54.213Z,71.00
2022-11-30T18:30:26.846Z,70.90
2022-11-30T18:32:59.493Z,71.00
2022-11-30T18:35:33.809Z,71.00
2022-11-30T18:38:06.427Z,71.00
2022-11-30T18:40:39.067Z,71.00
2022-11-30T18:43:11.758Z,71.10
2022-11-30T18:45:44.546Z,71.10
2022-11-30T18:48:17.265Z,71.10
2022-11-30T18:50:49.800Z,71.20
2022-11-30T18:53:22.422Z,71.20
2022-11-30T18:55:55.203Z,71.20
2022-11-30T18:58:27.777Z,71.20
2022-11-30T19:01:10.684Z,71.20
2022-11-30T19:03:43.648Z,71.20
2022-11-30T19:06:16.291Z,71.20
2022-11-30T19:08:49.070Z,71.20
2022-11-30T19:11:21.847Z,71.30
2022-11-30T19:14:01.661Z,71.40
2022-11-30T19:16:36.439Z,71.40
2022-11-30T19:19:14.704Z,71.40
2022-11-30T19:21:52.912Z,71.40
2022-11-30T19:24:25.957Z,71.50
2022-11-30T19:26:58.660Z,71.60
2022-11-30T19:29:31.703Z,71.60
2022-11-30T19:32:04.544Z,71.50
2022-11-30T19:34:37.145Z,71.60
2022-11-30T19:37:09.712Z,71.70
2022-11-30T19:39:42.370Z,71.70
2022-11-30T19:42:15.182Z,71.70
2022-11-30T19:44:48.019Z,71.80
2022-11-30T19:47:20.849Z,71.80
2022-11-30T19:49:53.506Z,71.90
2022-11-30T19:52:26.102Z,71.80
2022-11-30T19:54:58.683Z,71.90
2022-11-30T19:57:31.339Z,72.00
2022-11-30T20:00:06.652Z,72.00
2022-11-30T20:02:45.106Z,72.00
2022-11-30T20:05:18.608Z,72.10
2022-11-30T20:07:51.306Z,72.10
2022-11-30T20:10:27.707Z,72.10
2022-11-30T20:13:03.048Z,72.30
2022-11-30T20:15:39.446Z,72.30
2022-11-30T20:18:12.173Z,72.30
2022-11-30T20:20:47.538Z,72.30
2022-11-30T20:23:20.115Z,72.30
2022-11-30T20:25:52.708Z,72.30
2022-11-30T20:28:25.257Z,72.30
2022-11-30T20:31:02.099Z,72.30
2022-11-30T20:33:35.815Z,72.30
2022-11-30T20:36:09.966Z,72.30
2022-11-30T20:38:43.436Z,72.40
2022-11-30T20:41:18.405Z,72.30
2022-11-30T20:43:50.981Z,72.40
2022-11-30T20:46:32.708Z,72.30
2022-11-30T20:49:13.522Z,72.30
2022-11-30T20:51:47.164Z,72.30
2022-11-30T20:54:21.025Z,72.40
2022-11-30T20:56:53.686Z,72.40
2022-11-30T20:59:26.954Z,72.50
2022-11-30T21:01:59.719Z,72.50
2022-11-30T21:04:32.436Z,72.70
2022-11-30T21:07:05.152Z,72.60
2022-11-30T21:09:40.060Z,72.70
2022-11-30T21:12:12.840Z,72.70
2022-11-30T21:14:45.651Z,72.70
2022-11-30T21:17:18.825Z,72.80
2022-11-30T21:19:51.533Z,72.80
2022-11-30T21:22:26.640Z,72.80
2022-11-30T21:24:59.544Z,72.90
2022-11-30T21:27:32.311Z,72.90
2022-11-30T21:30:05.761Z,72.90
2022-11-30T21:32:38.327Z,73.00
2022-11-30T21:35:11.331Z,73.00
2022-11-30T21:37:43.950Z,72.90
2022-11-30T21:40:16.726Z,72.90
2022-11-30T21:42:49.389Z,72.90
2022-11-30T21:45:22.054Z,72.90
2022-11-30T21:47:54.708Z,73.00
2022-11-30T21:50:27.719Z,73.00
2022-11-30T21:53:00.307Z,73.10
2022-11-30T21:55:34.124Z,73.10
2022-11-30T21:58:06.750Z,73.00
2022-11-30T22:00:39.297Z,73.10
2022-11-30T22:03:15.700Z,73.00
2022-11-30T22:06:05.726Z,73.20
2022-11-30T22:08:38.674Z,73.10
2022-11-30T22:11:16.522Z,73.10
2022-11-30T22:13:53.989Z,73.20
2022-11-30T22:16:34.042Z,73.30
2022-11-30T22:19:08.883Z,73.30
2022-11-30T22:21:45.313Z,73.20
2022-11-30T22:24:20.961Z,73.30
2022-11-30T22:26:53.500Z,73.40
2022-11-30T22:29:26.221Z,73.40
2022-11-30T22:31:58.847Z,73.50
2022-11-30T22:34:32.106Z,73.50
2022-11-30T22:37:04.532Z,73.50
2022-11-30T22:39:37.163Z,73.60
2022-11-30T22:42:09.718Z,73.60
2022-11-30T22:44:42.240Z,74.40
2022-11-30T22:47:15.282Z,73.60
2022-11-30T22:49:48.064Z,73.50
2022-11-30T22:52:36.373Z,73.60
2022-11-30T22:55:14.098Z,73.60
2022-11-30T22:57:46.784Z,73.60
2022-11-30T23:00:19.711Z,73.70
2022-11-30T23:02:52.390Z,73.60
2022-11-30T23:05:25.044Z,73.70
2022-11-30T23:07:57.730Z,73.70
2022-11-30T23:10:30.397Z,73.70
2022-11-30T23:13:03.101Z,73.80
2022-11-30T23:15:35.718Z,73.70
2022-11-30T23:18:08.336Z,73.70
2022-11-30T23:20:40.862Z,73.80
2022-11-30T23:23:13.478Z,73.70
2022-11-30T23:25:45.961Z,73.70
2022-11-30T23:28:18.591Z,73.70
2022-11-30T23:30:51.178Z,73.80
2022-11-30T23:33:23.734Z,73.70
2022-11-30T23:35:56.346Z,73.70
2022-11-30T23:38:29.005Z,73.70
2022-11-30T23:41:10.079Z,73.70
2022-11-30T23:43:43.223Z,73.70
2022-11-30T23:46:15.834Z,73.70
2022-11-30T23:48:48.422Z,73.80
2022-11-30T23:51:20.950Z,73.80
2022-11-30T23:53:53.551Z,73.80
2022-11-30T23:56:26.188Z,73.70
2022-11-30T23:58:58.821Z,73.70
